Bayview, Wisconsin
Current Conditions -  °F | °C
As of 2:39 AM on Saturday 22 Nov 2014 (Local Time) from KMKE Reporting Station
Freezing Rain Freezing Rain  
Wind Chill: 22°   Ceiling: 6000
Heat Index: 33°   Visibility: 5mi
Dew Point: 25°   Wind: 17mph
Humidity: 72%   Direction: 220°SW
Pressure: 30.05"   Gusts: 23mph
Location:  42.9708°N, 87.8754°W
Report Text: KMKE 220839Z 22015G20KT 5SM -FZRA FEW032 FEW044 OVC060 01/M04 A3005 RMK AO2 DZE24RAB24E33FZRAB33 P0000 I1001 T00061039
Loading
Personal Weather Stations






























Interactive Weather Map New forecast layout! Learn more

10-Day Weather Forecast

Advertisements
Track Severe Weather on mobile